sensor_id;sensor_type;location;lat;lon;timestamp;P1;durP1;ratioP1;P2;durP2;ratioP2
73980;SDS011;62348;51.412;5.436;2023-12-14T00:01:30;41.47;;;21.73;;
73980;SDS011;62348;51.412;5.436;2023-12-14T00:03:55;43.83;;;22.98;;
73980;SDS011;62348;51.412;5.436;2023-12-14T00:06:21;36.63;;;20.30;;
73980;SDS011;62348;51.412;5.436;2023-12-14T00:08:46;32.85;;;17.83;;
73980;SDS011;62348;51.412;5.436;2023-12-14T00:11:12;27.10;;;17.83;;
73980;SDS011;62348;51.412;5.436;2023-12-14T00:13:40;31.27;;;17.33;;
73980;SDS011;62348;51.412;5.436;2023-12-14T00:16:05;27.63;;;17.77;;
73980;SDS011;62348;51.412;5.436;2023-12-14T00:18:32;25.77;;;16.25;;
73980;SDS011;62348;51.412;5.436;2023-12-14T00:20:57;20.65;;;13.80;;
73980;SDS011;62348;51.412;5.436;2023-12-14T00:23:23;20.63;;;13.88;;
73980;SDS011;62348;51.412;5.436;2023-12-14T00:25:48;22.55;;;14.57;;
73980;SDS011;62348;51.412;5.436;2023-12-14T00:28:14;23.42;;;14.80;;
73980;SDS011;62348;51.412;5.436;2023-12-14T00:30:40;22.80;;;13.90;;
73980;SDS011;62348;51.412;5.436;2023-12-14T00:33:05;22.77;;;14.70;;
73980;SDS011;62348;51.412;5.436;2023-12-14T00:35:31;20.13;;;14.35;;
73980;SDS011;62348;51.412;5.436;2023-12-14T00:37:56;20.45;;;14.05;;
73980;SDS011;62348;51.412;5.436;2023-12-14T00:40:21;21.85;;;13.98;;
73980;SDS011;62348;51.412;5.436;2023-12-14T00:42:47;19.05;;;12.95;;
73980;SDS011;62348;51.412;5.436;2023-12-14T00:45:13;20.83;;;13.82;;
73980;SDS011;62348;51.412;5.436;2023-12-14T00:47:38;19.05;;;13.13;;
73980;SDS011;62348;51.412;5.436;2023-12-14T00:50:03;19.63;;;13.13;;
73980;SDS011;62348;51.412;5.436;2023-12-14T00:52:29;20.50;;;13.23;;
73980;SDS011;62348;51.412;5.436;2023-12-14T00:54:55;19.17;;;13.25;;
73980;SDS011;62348;51.412;5.436;2023-12-14T00:57:20;21.42;;;15.30;;
73980;SDS011;62348;51.412;5.436;2023-12-14T00:59:45;21.50;;;13.65;;
73980;SDS011;62348;51.412;5.436;2023-12-14T01:02:11;21.23;;;14.07;;
73980;SDS011;62348;51.412;5.436;2023-12-14T01:04:37;21.50;;;14.18;;
73980;SDS011;62348;51.412;5.436;2023-12-14T01:07:02;23.85;;;15.85;;
73980;SDS011;62348;51.412;5.436;2023-12-14T01:09:29;22.83;;;14.75;;
73980;SDS011;62348;51.412;5.436;2023-12-14T01:11:54;23.88;;;15.10;;
73980;SDS011;62348;51.412;5.436;2023-12-14T01:14:19;24.33;;;16.20;;
73980;SDS011;62348;51.412;5.436;2023-12-14T01:16:45;25.80;;;17.60;;
73980;SDS011;62348;51.412;5.436;2023-12-14T01:19:11;26.80;;;17.20;;
73980;SDS011;62348;51.412;5.436;2023-12-14T01:21:36;30.83;;;18.25;;
73980;SDS011;62348;51.412;5.436;2023-12-14T01:24:01;29.77;;;17.55;;
73980;SDS011;62348;51.412;5.436;2023-12-14T01:26:27;30.58;;;17.23;;
73980;SDS011;62348;51.412;5.436;2023-12-14T01:28:52;31.10;;;16.98;;
73980;SDS011;62348;51.412;5.436;2023-12-14T01:31:18;31.77;;;18.98;;
73980;SDS011;62348;51.412;5.436;2023-12-14T01:33:44;31.23;;;18.15;;
73980;SDS011;62348;51.412;5.436;2023-12-14T01:36:11;32.75;;;18.67;;
73980;SDS011;62348;51.412;5.436;2023-12-14T01:38:36;32.55;;;18.73;;
73980;SDS011;62348;51.412;5.436;2023-12-14T01:41:02;32.70;;;17.13;;
73980;SDS011;62348;51.412;5.436;2023-12-14T01:43:27;32.10;;;17.30;;
73980;SDS011;62348;51.412;5.436;2023-12-14T01:45:53;33.08;;;17.75;;
73980;SDS011;62348;51.412;5.436;2023-12-14T01:48:18;27.23;;;15.35;;
73980;SDS011;62348;51.412;5.436;2023-12-14T01:50:44;26.13;;;16.20;;
73980;SDS011;62348;51.412;5.436;2023-12-14T01:53:09;28.02;;;16.08;;
73980;SDS011;62348;51.412;5.436;2023-12-14T01:55:34;27.60;;;16.45;;
73980;SDS011;62348;51.412;5.436;2023-12-14T01:58:00;27.73;;;15.10;;
73980;SDS011;62348;51.412;5.436;2023-12-14T02:00:43;24.67;;;14.20;;
73980;SDS011;62348;51.412;5.436;2023-12-14T02:03:15;22.13;;;13.98;;
73980;SDS011;62348;51.412;5.436;2023-12-14T02:05:41;24.98;;;15.32;;
73980;SDS011;62348;51.412;5.436;2023-12-14T02:08:06;24.98;;;14.10;;
73980;SDS011;62348;51.412;5.436;2023-12-14T02:10:32;25.45;;;15.15;;
73980;SDS011;62348;51.412;5.436;2023-12-14T02:12:57;21.50;;;13.52;;
73980;SDS011;62348;51.412;5.436;2023-12-14T02:15:26;24.42;;;14.38;;
73980;SDS011;62348;51.412;5.436;2023-12-14T02:17:51;22.95;;;13.80;;
73980;SDS011;62348;51.412;5.436;2023-12-14T02:20:16;21.25;;;14.13;;
73980;SDS011;62348;51.412;5.436;2023-12-14T02:22:48;25.20;;;15.20;;
73980;SDS011;62348;51.412;5.436;2023-12-14T02:25:18;24.77;;;14.63;;
73980;SDS011;62348;51.412;5.436;2023-12-14T02:27:43;22.95;;;13.55;;
73980;SDS011;62348;51.412;5.436;2023-12-14T02:30:10;19.35;;;12.07;;
73980;SDS011;62348;51.412;5.436;2023-12-14T02:32:36;23.25;;;13.05;;
73980;SDS011;62348;51.412;5.436;2023-12-14T02:35:01;21.70;;;13.93;;
73980;SDS011;62348;51.412;5.436;2023-12-14T02:37:27;19.77;;;13.23;;
73980;SDS011;62348;51.412;5.436;2023-12-14T02:39:52;17.80;;;12.10;;
73980;SDS011;62348;51.412;5.436;2023-12-14T02:42:18;17.42;;;11.43;;
73980;SDS011;62348;51.412;5.436;2023-12-14T02:44:44;21.45;;;12.25;;
73980;SDS011;62348;51.412;5.436;2023-12-14T02:47:09;20.80;;;12.07;;
73980;SDS011;62348;51.412;5.436;2023-12-14T02:49:34;22.10;;;14.10;;
73980;SDS011;62348;51.412;5.436;2023-12-14T02:52:00;18.35;;;11.93;;
73980;SDS011;62348;51.412;5.436;2023-12-14T02:54:25;18.00;;;11.88;;
73980;SDS011;62348;51.412;5.436;2023-12-14T02:56:50;20.00;;;12.98;;
73980;SDS011;62348;51.412;5.436;2023-12-14T02:59:16;17.90;;;12.50;;
73980;SDS011;62348;51.412;5.436;2023-12-14T03:01:41;22.00;;;13.63;;
73980;SDS011;62348;51.412;5.436;2023-12-14T03:04:07;21.05;;;13.85;;
73980;SDS011;62348;51.412;5.436;2023-12-14T03:06:32;20.73;;;13.20;;
73980;SDS011;62348;51.412;5.436;2023-12-14T03:08:58;19.45;;;12.85;;
73980;SDS011;62348;51.412;5.436;2023-12-14T03:11:23;20.42;;;13.05;;
73980;SDS011;62348;51.412;5.436;2023-12-14T03:13:49;20.90;;;13.18;;
73980;SDS011;62348;51.412;5.436;2023-12-14T03:16:15;22.20;;;13.63;;
73980;SDS011;62348;51.412;5.436;2023-12-14T03:18:42;20.77;;;13.18;;
73980;SDS011;62348;51.412;5.436;2023-12-14T03:21:08;23.58;;;14.63;;
73980;SDS011;62348;51.412;5.436;2023-12-14T03:23:34;24.33;;;14.50;;
73980;SDS011;62348;51.412;5.436;2023-12-14T03:25:59;24.17;;;14.52;;
73980;SDS011;62348;51.412;5.436;2023-12-14T03:28:24;22.20;;;14.20;;
73980;SDS011;62348;51.412;5.436;2023-12-14T03:30:50;23.50;;;14.55;;
73980;SDS011;62348;51.412;5.436;2023-12-14T03:33:15;21.60;;;13.88;;
73980;SDS011;62348;51.412;5.436;2023-12-14T03:35:41;21.35;;;13.52;;
73980;SDS011;62348;51.412;5.436;2023-12-14T03:38:07;25.35;;;14.25;;
73980;SDS011;62348;51.412;5.436;2023-12-14T03:40:33;22.25;;;13.15;;
73980;SDS011;62348;51.412;5.436;2023-12-14T03:42:58;24.27;;;14.10;;
73980;SDS011;62348;51.412;5.436;2023-12-14T03:45:23;20.02;;;13.07;;
73980;SDS011;62348;51.412;5.436;2023-12-14T03:47:49;21.10;;;13.30;;
73980;SDS011;62348;51.412;5.436;2023-12-14T03:50:14;25.92;;;13.43;;
73980;SDS011;62348;51.412;5.436;2023-12-14T03:52:40;21.60;;;14.77;;
73980;SDS011;62348;51.412;5.436;2023-12-14T03:55:06;23.80;;;14.35;;
73980;SDS011;62348;51.412;5.436;2023-12-14T03:57:31;22.05;;;14.35;;
73980;SDS011;62348;51.412;5.436;2023-12-14T03:59:57;24.05;;;14.85;;
73980;SDS011;62348;51.412;5.436;2023-12-14T04:02:22;25.30;;;14.18;;
73980;SDS011;62348;51.412;5.436;2023-12-14T04:04:47;24.05;;;14.90;;
73980;SDS011;62348;51.412;5.436;2023-12-14T04:07:13;23.70;;;14.70;;
73980;SDS011;62348;51.412;5.436;2023-12-14T04:09:38;26.50;;;16.45;;
73980;SDS011;62348;51.412;5.436;2023-12-14T04:12:04;21.65;;;14.68;;
73980;SDS011;62348;51.412;5.436;2023-12-14T04:14:30;21.02;;;14.15;;
73980;SDS011;62348;51.412;5.436;2023-12-14T04:16:55;22.27;;;13.88;;
73980;SDS011;62348;51.412;5.436;2023-12-14T04:19:20;21.08;;;13.55;;
73980;SDS011;62348;51.412;5.436;2023-12-14T04:21:47;20.95;;;14.50;;
73980;SDS011;62348;51.412;5.436;2023-12-14T04:24:12;24.45;;;14.50;;
73980;SDS011;62348;51.412;5.436;2023-12-14T04:26:38;20.48;;;13.45;;
73980;SDS011;62348;51.412;5.436;2023-12-14T04:29:04;19.90;;;14.43;;
73980;SDS011;62348;51.412;5.436;2023-12-14T04:31:30;21.42;;;14.10;;
73980;SDS011;62348;51.412;5.436;2023-12-14T04:33:56;23.90;;;15.68;;
73980;SDS011;62348;51.412;5.436;2023-12-14T04:36:22;23.02;;;14.82;;
73980;SDS011;62348;51.412;5.436;2023-12-14T04:38:48;23.98;;;15.43;;
73980;SDS011;62348;51.412;5.436;2023-12-14T04:41:13;23.23;;;14.38;;
73980;SDS011;62348;51.412;5.436;2023-12-14T04:43:39;21.92;;;14.55;;
73980;SDS011;62348;51.412;5.436;2023-12-14T04:46:04;23.27;;;14.55;;
73980;SDS011;62348;51.412;5.436;2023-12-14T04:48:31;22.08;;;14.48;;
73980;SDS011;62348;51.412;5.436;2023-12-14T04:50:57;21.90;;;15.63;;
73980;SDS011;62348;51.412;5.436;2023-12-14T04:53:22;23.88;;;16.13;;
73980;SDS011;62348;51.412;5.436;2023-12-14T04:55:47;21.88;;;14.77;;
73980;SDS011;62348;51.412;5.436;2023-12-14T04:58:13;21.05;;;13.85;;
73980;SDS011;62348;51.412;5.436;2023-12-14T05:00:38;23.48;;;14.35;;
73980;SDS011;62348;51.412;5.436;2023-12-14T05:03:04;21.05;;;13.88;;
73980;SDS011;62348;51.412;5.436;2023-12-14T05:05:29;22.50;;;14.20;;
73980;SDS011;62348;51.412;5.436;2023-12-14T05:07:54;24.30;;;15.73;;
73980;SDS011;62348;51.412;5.436;2023-12-14T05:10:20;24.15;;;14.85;;
73980;SDS011;62348;51.412;5.436;2023-12-14T05:12:45;25.38;;;15.75;;
73980;SDS011;62348;51.412;5.436;2023-12-14T05:15:10;20.67;;;14.43;;
73980;SDS011;62348;51.412;5.436;2023-12-14T05:17:36;22.17;;;14.70;;
73980;SDS011;62348;51.412;5.436;2023-12-14T05:20:02;19.92;;;13.95;;
73980;SDS011;62348;51.412;5.436;2023-12-14T05:22:34;24.85;;;14.55;;
73980;SDS011;62348;51.412;5.436;2023-12-14T05:24:59;20.23;;;13.02;;
73980;SDS011;62348;51.412;5.436;2023-12-14T05:27:25;20.63;;;13.63;;
73980;SDS011;62348;51.412;5.436;2023-12-14T05:29:50;22.15;;;14.75;;
73980;SDS011;62348;51.412;5.436;2023-12-14T05:32:16;23.48;;;15.05;;
73980;SDS011;62348;51.412;5.436;2023-12-14T05:34:41;22.00;;;14.57;;
73980;SDS011;62348;51.412;5.436;2023-12-14T05:37:06;22.83;;;15.43;;
73980;SDS011;62348;51.412;5.436;2023-12-14T05:39:32;22.42;;;14.85;;
73980;SDS011;62348;51.412;5.436;2023-12-14T05:41:57;21.77;;;14.77;;
73980;SDS011;62348;51.412;5.436;2023-12-14T05:44:23;22.92;;;14.77;;
73980;SDS011;62348;51.412;5.436;2023-12-14T05:46:49;22.27;;;15.23;;
73980;SDS011;62348;51.412;5.436;2023-12-14T05:49:15;21.48;;;14.75;;
73980;SDS011;62348;51.412;5.436;2023-12-14T05:51:40;21.88;;;14.45;;
73980;SDS011;62348;51.412;5.436;2023-12-14T05:54:06;20.40;;;13.98;;
73980;SDS011;62348;51.412;5.436;2023-12-14T05:56:31;20.15;;;14.25;;
73980;SDS011;62348;51.412;5.436;2023-12-14T05:58:57;21.90;;;14.45;;
73980;SDS011;62348;51.412;5.436;2023-12-14T06:01:23;22.30;;;14.73;;
73980;SDS011;62348;51.412;5.436;2023-12-14T06:03:49;21.50;;;13.90;;
73980;SDS011;62348;51.412;5.436;2023-12-14T06:06:14;24.13;;;15.35;;
73980;SDS011;62348;51.412;5.436;2023-12-14T06:08:40;24.55;;;15.63;;
73980;SDS011;62348;51.412;5.436;2023-12-14T06:11:05;20.08;;;14.15;;
73980;SDS011;62348;51.412;5.436;2023-12-14T06:13:31;20.90;;;14.57;;
73980;SDS011;62348;51.412;5.436;2023-12-14T06:15:57;23.13;;;14.20;;
73980;SDS011;62348;51.412;5.436;2023-12-14T06:18:23;23.50;;;14.60;;
73980;SDS011;62348;51.412;5.436;2023-12-14T06:20:48;23.13;;;14.82;;
73980;SDS011;62348;51.412;5.436;2023-12-14T06:23:14;21.55;;;14.95;;
73980;SDS011;62348;51.412;5.436;2023-12-14T06:25:39;20.38;;;14.30;;
73980;SDS011;62348;51.412;5.436;2023-12-14T06:28:04;22.95;;;14.80;;
73980;SDS011;62348;51.412;5.436;2023-12-14T06:30:30;21.50;;;15.13;;
73980;SDS011;62348;51.412;5.436;2023-12-14T06:32:55;22.25;;;15.10;;
73980;SDS011;62348;51.412;5.436;2023-12-14T06:35:21;21.08;;;14.73;;
73980;SDS011;62348;51.412;5.436;2023-12-14T06:37:47;23.20;;;15.32;;
73980;SDS011;62348;51.412;5.436;2023-12-14T06:40:12;25.13;;;15.73;;
73980;SDS011;62348;51.412;5.436;2023-12-14T06:42:38;22.05;;;14.45;;
73980;SDS011;62348;51.412;5.436;2023-12-14T06:45:03;24.27;;;14.60;;
73980;SDS011;62348;51.412;5.436;2023-12-14T06:47:29;21.88;;;15.20;;
73980;SDS011;62348;51.412;5.436;2023-12-14T06:49:54;22.73;;;14.82;;
73980;SDS011;62348;51.412;5.436;2023-12-14T06:52:22;23.08;;;15.38;;
73980;SDS011;62348;51.412;5.436;2023-12-14T06:54:47;21.20;;;15.48;;
73980;SDS011;62348;51.412;5.436;2023-12-14T06:57:13;20.25;;;13.77;;
73980;SDS011;62348;51.412;5.436;2023-12-14T06:59:38;22.30;;;13.63;;
73980;SDS011;62348;51.412;5.436;2023-12-14T07:02:04;21.92;;;15.70;;
73980;SDS011;62348;51.412;5.436;2023-12-14T07:04:29;20.15;;;14.00;;
73980;SDS011;62348;51.412;5.436;2023-12-14T07:06:55;22.60;;;15.15;;
73980;SDS011;62348;51.412;5.436;2023-12-14T07:09:20;19.23;;;13.52;;
73980;SDS011;62348;51.412;5.436;2023-12-14T07:11:45;22.20;;;13.75;;
73980;SDS011;62348;51.412;5.436;2023-12-14T07:14:11;21.05;;;13.68;;
73980;SDS011;62348;51.412;5.436;2023-12-14T07:16:37;22.00;;;14.90;;
73980;SDS011;62348;51.412;5.436;2023-12-14T07:19:03;22.13;;;14.40;;
73980;SDS011;62348;51.412;5.436;2023-12-14T07:21:28;22.80;;;15.43;;
73980;SDS011;62348;51.412;5.436;2023-12-14T07:23:54;22.33;;;15.35;;
73980;SDS011;62348;51.412;5.436;2023-12-14T07:26:19;24.85;;;16.88;;
73980;SDS011;62348;51.412;5.436;2023-12-14T07:28:44;28.35;;;17.23;;
73980;SDS011;62348;51.412;5.436;2023-12-14T07:31:10;27.55;;;17.13;;
73980;SDS011;62348;51.412;5.436;2023-12-14T07:33:35;29.52;;;17.25;;
73980;SDS011;62348;51.412;5.436;2023-12-14T07:36:01;28.25;;;16.83;;
73980;SDS011;62348;51.412;5.436;2023-12-14T07:38:26;32.92;;;18.42;;
73980;SDS011;62348;51.412;5.436;2023-12-14T07:40:52;28.92;;;18.77;;
73980;SDS011;62348;51.412;5.436;2023-12-14T07:43:17;31.05;;;17.48;;
73980;SDS011;62348;51.412;5.436;2023-12-14T07:45:43;33.40;;;17.98;;
73980;SDS011;62348;51.412;5.436;2023-12-14T07:48:09;30.58;;;17.52;;
73980;SDS011;62348;51.412;5.436;2023-12-14T07:50:34;28.52;;;17.65;;
73980;SDS011;62348;51.412;5.436;2023-12-14T07:53:01;36.95;;;18.52;;
73980;SDS011;62348;51.412;5.436;2023-12-14T07:55:27;29.10;;;16.42;;
73980;SDS011;62348;51.412;5.436;2023-12-14T07:57:54;32.72;;;17.63;;
73980;SDS011;62348;51.412;5.436;2023-12-14T08:00:19;30.65;;;16.23;;
73980;SDS011;62348;51.412;5.436;2023-12-14T08:02:44;24.95;;;15.35;;
73980;SDS011;62348;51.412;5.436;2023-12-14T08:05:10;28.73;;;15.80;;
73980;SDS011;62348;51.412;5.436;2023-12-14T08:07:35;29.38;;;15.52;;
73980;SDS011;62348;51.412;5.436;2023-12-14T08:10:01;27.70;;;15.50;;
73980;SDS011;62348;51.412;5.436;2023-12-14T08:12:27;26.08;;;14.98;;
73980;SDS011;62348;51.412;5.436;2023-12-14T08:14:52;27.42;;;15.30;;
73980;SDS011;62348;51.412;5.436;2023-12-14T08:17:17;23.85;;;14.20;;
73980;SDS011;62348;51.412;5.436;2023-12-14T08:19:43;26.05;;;14.45;;
73980;SDS011;62348;51.412;5.436;2023-12-14T08:22:12;23.65;;;12.35;;
73980;SDS011;62348;51.412;5.436;2023-12-14T08:24:38;25.50;;;13.60;;
73980;SDS011;62348;51.412;5.436;2023-12-14T08:27:04;23.23;;;13.45;;
73980;SDS011;62348;51.412;5.436;2023-12-14T08:29:29;23.00;;;12.98;;
73980;SDS011;62348;51.412;5.436;2023-12-14T08:31:55;27.60;;;14.20;;
73980;SDS011;62348;51.412;5.436;2023-12-14T08:34:22;24.17;;;13.50;;
73980;SDS011;62348;51.412;5.436;2023-12-14T08:36:49;21.40;;;13.30;;
73980;SDS011;62348;51.412;5.436;2023-12-14T08:39:14;21.25;;;12.32;;
73980;SDS011;62348;51.412;5.436;2023-12-14T08:41:40;23.38;;;14.18;;
73980;SDS011;62348;51.412;5.436;2023-12-14T08:44:06;21.25;;;13.32;;
73980;SDS011;62348;51.412;5.436;2023-12-14T08:46:39;20.88;;;12.75;;
73980;SDS011;62348;51.412;5.436;2023-12-14T08:49:06;25.10;;;13.23;;
73980;SDS011;62348;51.412;5.436;2023-12-14T08:51:31;22.50;;;13.95;;
73980;SDS011;62348;51.412;5.436;2023-12-14T08:53:56;19.63;;;11.65;;
73980;SDS011;62348;51.412;5.436;2023-12-14T08:56:22;20.23;;;12.77;;
73980;SDS011;62348;51.412;5.436;2023-12-14T08:58:47;25.63;;;12.98;;
73980;SDS011;62348;51.412;5.436;2023-12-14T09:01:19;20.52;;;11.65;;
73980;SDS011;62348;51.412;5.436;2023-12-14T09:03:46;21.02;;;13.20;;
73980;SDS011;62348;51.412;5.436;2023-12-14T09:06:11;18.60;;;12.20;;
73980;SDS011;62348;51.412;5.436;2023-12-14T09:08:37;17.92;;;12.40;;
73980;SDS011;62348;51.412;5.436;2023-12-14T09:11:02;19.13;;;13.07;;
73980;SDS011;62348;51.412;5.436;2023-12-14T09:13:28;20.02;;;12.02;;
73980;SDS011;62348;51.412;5.436;2023-12-14T09:15:54;17.95;;;11.80;;
73980;SDS011;62348;51.412;5.436;2023-12-14T09:18:19;20.15;;;12.15;;
73980;SDS011;62348;51.412;5.436;2023-12-14T09:20:47;19.98;;;12.65;;
73980;SDS011;62348;51.412;5.436;2023-12-14T09:23:14;17.92;;;12.30;;
73980;SDS011;62348;51.412;5.436;2023-12-14T09:25:40;18.70;;;12.30;;
73980;SDS011;62348;51.412;5.436;2023-12-14T09:28:05;20.73;;;12.20;;
73980;SDS011;62348;51.412;5.436;2023-12-14T09:30:30;18.35;;;11.00;;
73980;SDS011;62348;51.412;5.436;2023-12-14T09:32:56;18.13;;;11.27;;
73980;SDS011;62348;51.412;5.436;2023-12-14T09:35:21;17.88;;;11.85;;
73980;SDS011;62348;51.412;5.436;2023-12-14T09:37:47;17.75;;;12.02;;
73980;SDS011;62348;51.412;5.436;2023-12-14T09:40:12;20.30;;;12.00;;
73980;SDS011;62348;51.412;5.436;2023-12-14T09:42:38;17.85;;;11.27;;
73980;SDS011;62348;51.412;5.436;2023-12-14T09:45:07;17.92;;;11.88;;
73980;SDS011;62348;51.412;5.436;2023-12-14T09:47:34;18.33;;;12.07;;
73980;SDS011;62348;51.412;5.436;2023-12-14T09:49:59;15.15;;;11.27;;
73980;SDS011;62348;51.412;5.436;2023-12-14T09:52:26;16.30;;;11.68;;
73980;SDS011;62348;51.412;5.436;2023-12-14T09:54:51;17.77;;;11.10;;
73980;SDS011;62348;51.412;5.436;2023-12-14T09:57:18;14.93;;;10.82;;
73980;SDS011;62348;51.412;5.436;2023-12-14T09:59:50;16.52;;;10.63;;
73980;SDS011;62348;51.412;5.436;2023-12-14T10:02:19;13.45;;;10.18;;
73980;SDS011;62348;51.412;5.436;2023-12-14T10:04:45;15.60;;;10.30;;
73980;SDS011;62348;51.412;5.436;2023-12-14T10:07:12;17.35;;;10.63;;
73980;SDS011;62348;51.412;5.436;2023-12-14T10:09:37;14.65;;;10.23;;
73980;SDS011;62348;51.412;5.436;2023-12-14T10:12:04;16.33;;;10.32;;
73980;SDS011;62348;51.412;5.436;2023-12-14T10:14:31;15.25;;;10.82;;
73980;SDS011;62348;51.412;5.436;2023-12-14T10:16:58;15.05;;;10.23;;
73980;SDS011;62348;51.412;5.436;2023-12-14T10:19:23;13.98;;;10.90;;
73980;SDS011;62348;51.412;5.436;2023-12-14T10:21:49;16.60;;;10.77;;
73980;SDS011;62348;51.412;5.436;2023-12-14T10:24:15;13.40;;;10.30;;
73980;SDS011;62348;51.412;5.436;2023-12-14T10:26:44;16.30;;;10.35;;
73980;SDS011;62348;51.412;5.436;2023-12-14T10:29:10;12.80;;;9.95;;
73980;SDS011;62348;51.412;5.436;2023-12-14T10:31:36;15.65;;;10.77;;
73980;SDS011;62348;51.412;5.436;2023-12-14T10:34:05;18.17;;;10.18;;
73980;SDS011;62348;51.412;5.436;2023-12-14T10:36:31;20.05;;;11.15;;
73980;SDS011;62348;51.412;5.436;2023-12-14T10:38:58;18.27;;;10.98;;
73980;SDS011;62348;51.412;5.436;2023-12-14T10:41:25;20.38;;;11.18;;
73980;SDS011;62348;51.412;5.436;2023-12-14T10:43:51;14.45;;;10.57;;
73980;SDS011;62348;51.412;5.436;2023-12-14T10:46:19;20.98;;;10.40;;
73980;SDS011;62348;51.412;5.436;2023-12-14T10:48:47;16.13;;;10.43;;
73980;SDS011;62348;51.412;5.436;2023-12-14T10:51:14;17.67;;;10.32;;
73980;SDS011;62348;51.412;5.436;2023-12-14T10:53:42;17.40;;;10.65;;
73980;SDS011;62348;51.412;5.436;2023-12-14T10:56:12;14.32;;;10.15;;
73980;SDS011;62348;51.412;5.436;2023-12-14T10:58:44;16.17;;;10.93;;
73980;SDS011;62348;51.412;5.436;2023-12-14T11:01:16;16.85;;;11.02;;
73980;SDS011;62348;51.412;5.436;2023-12-14T11:03:44;16.50;;;11.13;;
73980;SDS011;62348;51.412;5.436;2023-12-14T11:06:28;16.52;;;11.95;;
73980;SDS011;62348;51.412;5.436;2023-12-14T11:09:04;15.70;;;10.70;;
73980;SDS011;62348;51.412;5.436;2023-12-14T11:11:38;15.30;;;10.85;;
73980;SDS011;62348;51.412;5.436;2023-12-14T11:14:07;15.05;;;10.82;;
73980;SDS011;62348;51.412;5.436;2023-12-14T11:16:35;14.52;;;10.65;;
73980;SDS011;62348;51.412;5.436;2023-12-14T11:21:46;16.00;;;9.63;;
73980;SDS011;62348;51.412;5.436;2023-12-14T11:24:12;18.73;;;8.93;;
73980;SDS011;62348;51.412;5.436;2023-12-14T11:26:37;13.20;;;9.45;;
73980;SDS011;62348;51.412;5.436;2023-12-14T11:29:03;14.32;;;10.23;;
73980;SDS011;62348;51.412;5.436;2023-12-14T11:31:29;15.18;;;9.48;;
73980;SDS011;62348;51.412;5.436;2023-12-14T11:33:55;13.95;;;9.25;;
73980;SDS011;62348;51.412;5.436;2023-12-14T11:36:25;14.32;;;9.63;;
73980;SDS011;62348;51.412;5.436;2023-12-14T11:38:51;15.20;;;10.18;;
73980;SDS011;62348;51.412;5.436;2023-12-14T11:41:20;14.57;;;10.18;;
73980;SDS011;62348;51.412;5.436;2023-12-14T11:43:46;18.23;;;9.98;;
73980;SDS011;62348;51.412;5.436;2023-12-14T11:46:11;16.08;;;10.85;;
73980;SDS011;62348;51.412;5.436;2023-12-14T11:48:38;13.32;;;9.43;;
73980;SDS011;62348;51.412;5.436;2023-12-14T11:51:04;13.95;;;10.18;;
73980;SDS011;62348;51.412;5.436;2023-12-14T11:53:30;15.93;;;10.50;;
73980;SDS011;62348;51.412;5.436;2023-12-14T11:55:55;13.98;;;10.52;;
73980;SDS011;62348;51.412;5.436;2023-12-14T11:58:21;14.18;;;9.75;;
73980;SDS011;62348;51.412;5.436;2023-12-14T12:00:49;14.10;;;9.75;;
73980;SDS011;62348;51.412;5.436;2023-12-14T12:03:19;13.57;;;10.65;;
73980;SDS011;62348;51.412;5.436;2023-12-14T12:05:47;12.18;;;9.35;;
73980;SDS011;62348;51.412;5.436;2023-12-14T12:08:14;13.80;;;9.20;;
73980;SDS011;62348;51.412;5.436;2023-12-14T12:10:41;9.40;;;8.02;;
73980;SDS011;62348;51.412;5.436;2023-12-14T12:13:12;9.73;;;8.23;;
73980;SDS011;62348;51.412;5.436;2023-12-14T12:15:41;10.98;;;7.85;;
73980;SDS011;62348;51.412;5.436;2023-12-14T12:18:08;10.98;;;8.60;;
73980;SDS011;62348;51.412;5.436;2023-12-14T12:20:35;12.48;;;7.93;;
73980;SDS011;62348;51.412;5.436;2023-12-14T12:23:01;11.48;;;8.30;;
73980;SDS011;62348;51.412;5.436;2023-12-14T12:25:28;10.70;;;7.95;;
73980;SDS011;62348;51.412;5.436;2023-12-14T12:27:54;11.98;;;8.48;;
73980;SDS011;62348;51.412;5.436;2023-12-14T12:30:23;11.75;;;8.68;;
73980;SDS011;62348;51.412;5.436;2023-12-14T12:32:48;10.65;;;7.97;;
73980;SDS011;62348;51.412;5.436;2023-12-14T12:35:16;11.60;;;9.07;;
73980;SDS011;62348;51.412;5.436;2023-12-14T12:37:41;13.48;;;8.43;;
73980;SDS011;62348;51.412;5.436;2023-12-14T12:40:07;12.25;;;8.55;;
73980;SDS011;62348;51.412;5.436;2023-12-14T12:42:33;12.35;;;8.25;;
73980;SDS011;62348;51.412;5.436;2023-12-14T12:44:59;12.45;;;8.73;;
73980;SDS011;62348;51.412;5.436;2023-12-14T12:47:24;11.10;;;8.90;;
73980;SDS011;62348;51.412;5.436;2023-12-14T12:49:49;10.95;;;8.00;;
73980;SDS011;62348;51.412;5.436;2023-12-14T12:52:15;10.95;;;7.95;;
73980;SDS011;62348;51.412;5.436;2023-12-14T12:54:40;13.60;;;9.32;;
73980;SDS011;62348;51.412;5.436;2023-12-14T12:57:06;12.70;;;8.63;;
73980;SDS011;62348;51.412;5.436;2023-12-14T12:59:31;12.85;;;8.52;;
73980;SDS011;62348;51.412;5.436;2023-12-14T13:01:57;12.93;;;8.65;;
73980;SDS011;62348;51.412;5.436;2023-12-14T13:04:23;13.98;;;9.23;;
73980;SDS011;62348;51.412;5.436;2023-12-14T13:06:49;11.25;;;8.45;;
73980;SDS011;62348;51.412;5.436;2023-12-14T13:09:15;12.02;;;8.77;;
73980;SDS011;62348;51.412;5.436;2023-12-14T13:11:42;12.90;;;8.40;;
73980;SDS011;62348;51.412;5.436;2023-12-14T13:14:08;13.23;;;9.88;;
73980;SDS011;62348;51.412;5.436;2023-12-14T13:16:37;12.13;;;9.32;;
73980;SDS011;62348;51.412;5.436;2023-12-14T13:19:03;13.25;;;9.38;;
73980;SDS011;62348;51.412;5.436;2023-12-14T13:21:31;12.65;;;8.32;;
73980;SDS011;62348;51.412;5.436;2023-12-14T13:24:01;12.00;;;9.32;;
73980;SDS011;62348;51.412;5.436;2023-12-14T13:26:27;12.88;;;8.93;;
73980;SDS011;62348;51.412;5.436;2023-12-14T13:28:54;14.50;;;9.60;;
73980;SDS011;62348;51.412;5.436;2023-12-14T13:31:20;13.30;;;9.63;;
73980;SDS011;62348;51.412;5.436;2023-12-14T13:33:46;13.18;;;9.40;;
73980;SDS011;62348;51.412;5.436;2023-12-14T13:36:12;15.70;;;9.73;;
73980;SDS011;62348;51.412;5.436;2023-12-14T13:38:39;12.05;;;9.25;;
73980;SDS011;62348;51.412;5.436;2023-12-14T13:41:05;14.40;;;10.02;;
73980;SDS011;62348;51.412;5.436;2023-12-14T13:43:31;13.98;;;9.48;;
73980;SDS011;62348;51.412;5.436;2023-12-14T13:45:56;14.38;;;9.70;;
73980;SDS011;62348;51.412;5.436;2023-12-14T13:48:26;12.68;;;9.60;;
73980;SDS011;62348;51.412;5.436;2023-12-14T13:50:55;12.93;;;10.15;;
73980;SDS011;62348;51.412;5.436;2023-12-14T13:53:21;15.63;;;10.80;;
73980;SDS011;62348;51.412;5.436;2023-12-14T13:55:47;13.90;;;9.98;;
73980;SDS011;62348;51.412;5.436;2023-12-14T13:58:14;16.35;;;10.20;;
73980;SDS011;62348;51.412;5.436;2023-12-14T14:00:39;14.27;;;10.25;;
73980;SDS011;62348;51.412;5.436;2023-12-14T14:03:05;14.30;;;10.70;;
73980;SDS011;62348;51.412;5.436;2023-12-14T14:05:31;13.23;;;10.00;;
73980;SDS011;62348;51.412;5.436;2023-12-14T14:07:57;12.18;;;8.50;;
73980;SDS011;62348;51.412;5.436;2023-12-14T14:10:22;14.82;;;10.38;;
73980;SDS011;62348;51.412;5.436;2023-12-14T14:12:48;14.90;;;10.57;;
73980;SDS011;62348;51.412;5.436;2023-12-14T14:15:14;14.77;;;10.13;;
73980;SDS011;62348;51.412;5.436;2023-12-14T14:17:39;13.98;;;10.30;;
73980;SDS011;62348;51.412;5.436;2023-12-14T14:20:07;12.20;;;9.98;;